createdAt,value
2023-04-28T00:04:22.485Z,49.3
2023-04-28T00:10:14.542Z,49.3
2023-04-28T00:16:05.743Z,49.3
2023-04-28T00:21:58.216Z,49.3
2023-04-28T00:27:49.382Z,49.2
2023-04-28T00:33:45.631Z,49.1
2023-04-28T00:39:37.338Z,49.1
2023-04-28T00:45:13.309Z,49.1
2023-04-28T00:50:49.527Z,49.1
2023-04-28T00:56:40.347Z,49
2023-04-28T01:02:16.810Z,48.9
2023-04-28T01:07:55.480Z,49
2023-04-28T01:13:47.040Z,48.9
2023-04-28T01:19:38.901Z,48.9
2023-04-28T01:25:29.947Z,48.9
2023-04-28T01:31:21.243Z,48.8
2023-04-28T01:37:12.613Z,48.8
2023-04-28T01:43:04.386Z,48.8
2023-04-28T01:48:56.254Z,48.7
2023-04-28T01:54:48.461Z,48.7
2023-04-28T02:00:41.073Z,48.6
2023-04-28T02:06:33.446Z,48.6
2023-04-28T02:12:24.760Z,48.6
2023-04-28T02:18:01.637Z,48.6
2023-04-28T02:23:39.944Z,48.5
2023-04-28T02:29:16.068Z,48.5
2023-04-28T02:35:08.078Z,48.4
2023-04-28T02:40:58.688Z,48.4
2023-04-28T02:46:50.557Z,48.3
2023-04-28T02:52:26.712Z,48.3
2023-04-28T02:58:18.393Z,48.3
2023-04-28T03:04:11.650Z,48.3
2023-04-28T03:09:48.628Z,48.3
2023-04-28T03:15:09.693Z,48.2
2023-04-28T03:20:46.277Z,48.2
2023-04-28T03:26:31.960Z,48.1
2023-04-28T03:32:07.242Z,48.1
2023-04-28T03:37:43.787Z,48.1
2023-04-28T03:43:37.803Z,48.1
2023-04-28T03:49:29.091Z,48
2023-04-28T03:55:20.292Z,48
2023-04-28T04:01:11.488Z,47.9
2023-04-28T04:07:06.882Z,47.9
2023-04-28T04:12:43.095Z,47.9
2023-04-28T04:18:36.054Z,47.8
2023-04-28T04:24:27.543Z,47.8
2023-04-28T04:30:18.912Z,47.8
2023-04-28T04:36:11.212Z,47.8
2023-04-28T04:42:10.419Z,47.7
2023-04-28T04:48:11.215Z,47.7
2023-04-28T04:54:05.626Z,47.6
2023-04-28T04:59:56.924Z,47.6
2023-04-28T05:06:05.792Z,47.6
2023-04-28T05:11:57.172Z,47.5
2023-04-28T05:17:52.185Z,47.5
2023-04-28T05:23:43.904Z,47.4
2023-04-28T05:29:36.207Z,47.4
2023-04-28T05:35:28.190Z,47.4
2023-04-28T05:41:19.854Z,47.4
2023-04-28T05:47:23.969Z,47.3
2023-04-28T05:53:15.954Z,47.3
2023-04-28T05:59:15.543Z,47.3
2023-04-28T06:04:55.154Z,47.2
2023-04-28T06:10:32.021Z,47.2
2023-04-28T06:16:08.501Z,47.2
2023-04-28T06:21:44.755Z,47.1
2023-04-28T06:27:07.035Z,47.1
2023-04-28T06:32:43.105Z,47.1
2023-04-28T06:38:05.907Z,47.1
2023-04-28T06:43:11.348Z,47
2023-04-28T06:48:35.517Z,47
2023-04-28T06:54:01.655Z,46.9
2023-04-28T06:59:54.655Z,46.9
2023-04-28T07:05:49.514Z,46.9
2023-04-28T07:11:43.800Z,46.9
2023-04-28T07:17:35.634Z,46.8
2023-04-28T07:23:27.314Z,46.8
2023-04-28T07:29:20.883Z,46.8
2023-04-28T07:35:30.926Z,46.8
2023-04-28T07:41:25.159Z,46.7
2023-04-28T07:47:17.155Z,46.7
2023-04-28T07:52:53.895Z,46.6
2023-04-28T07:58:45.094Z,46.6
2023-04-28T08:04:40.414Z,46.6
2023-04-28T08:10:32.268Z,46.6
2023-04-28T08:16:08.195Z,46.8
2023-04-28T08:22:03.267Z,47
2023-04-28T08:27:57.296Z,47.4
2023-04-28T08:33:18.437Z,47.8
2023-04-28T08:38:55.691Z,48.2
2023-04-28T08:44:34.703Z,48.6
2023-04-28T08:49:56.031Z,48.9
2023-04-28T08:55:48.671Z,49.3
2023-04-28T09:01:09.872Z,49.8
2023-04-28T09:06:49.947Z,50.2
2023-04-28T09:12:13.079Z,50.6
2023-04-28T09:17:34.304Z,51
2023-04-28T09:23:44.033Z,51.4
2023-04-28T09:40:35.756Z,52.8
2023-04-28T09:46:13.067Z,53.2
2023-04-28T09:51:49.359Z,53.5
2023-04-28T09:57:40.873Z,53.9
2023-04-28T10:05:30.241Z,54.4
2023-04-28T10:11:22.510Z,54.9
2023-04-28T10:16:58.773Z,55.4
2023-04-28T10:22:50.101Z,55.8
2023-04-28T10:28:43.605Z,56.2
2023-04-28T10:34:47.872Z,56.6
2023-04-28T10:40:48.976Z,56.9
2023-04-28T10:46:45.306Z,57.3
2023-04-28T10:52:50.559Z,57.6
2023-04-28T10:58:54.166Z,58
2023-04-28T11:04:47.482Z,58.3
2023-04-28T11:10:39.377Z,58.6
2023-04-28T11:16:33.365Z,58.9
2023-04-28T11:22:09.185Z,59.1
2023-04-28T11:28:00.532Z,59.4
2023-04-28T11:33:52.230Z,59.6
2023-04-28T11:39:44.749Z,59.9
2023-04-28T11:45:42.963Z,60.2
2023-04-28T11:51:36.302Z,60.4
2023-04-28T11:57:28.098Z,60.6
2023-04-28T12:03:22.805Z,60.8
2023-04-28T12:09:18.302Z,60.9
2023-04-28T12:15:26.353Z,61.1
2023-04-28T12:21:18.147Z,61.2
2023-04-28T12:26:55.022Z,61.3
2023-04-28T12:32:46.729Z,61.4
2023-04-28T12:38:40.044Z,61.5
2023-04-28T12:44:32.238Z,61.5
2023-04-28T12:50:25.301Z,61.6
2023-04-28T12:56:17.173Z,61.6
2023-04-28T13:01:53.513Z,61.5
2023-04-28T13:07:47.489Z,61.5
2023-04-28T13:13:49.937Z,61.5
2023-04-28T13:19:42.225Z,61.4
2023-04-28T13:25:21.204Z,61.4
2023-04-28T13:30:57.342Z,61.4
2023-04-28T13:36:48.717Z,61.4
2023-04-28T13:42:41.631Z,61.4
2023-04-28T13:48:33.176Z,61.3
2023-04-28T13:54:24.114Z,61.3
2023-04-28T14:00:16.033Z,61.3
2023-04-28T14:06:06.392Z,61.2
2023-04-28T14:12:00.259Z,61.1
2023-04-28T14:18:03.211Z,61.1
2023-04-28T14:23:54.196Z,61.1
2023-04-28T14:29:45.918Z,61.1
2023-04-28T14:35:38.143Z,61
2023-04-28T14:41:15.055Z,60.9
2023-04-28T14:47:06.899Z,60.9
2023-04-28T14:52:58.887Z,60.9
2023-04-28T14:58:52.798Z,60.9
2023-04-28T15:04:46.438Z,60.8
2023-04-28T15:10:26.269Z,60.8
2023-04-28T15:16:18.148Z,60.7
2023-04-28T15:22:11.176Z,60.7
2023-04-28T15:28:03.199Z,60.6
2023-04-28T15:33:56.584Z,60.6
2023-04-28T15:39:51.825Z,60.5
2023-04-28T15:45:43.510Z,60.5
2023-04-28T15:51:36.097Z,60.4
2023-04-28T15:57:28.229Z,60.4
2023-04-28T16:03:21.083Z,60.4
2023-04-28T16:09:14.031Z,60.3
2023-04-28T16:15:06.563Z,60.3
2023-04-28T16:20:59.026Z,60.2
2023-04-28T16:26:37.176Z,60.2
2023-04-28T16:32:29.656Z,60.1
2023-04-28T16:38:22.181Z,60.1
2023-04-28T16:44:14.845Z,60.1
2023-04-28T16:50:07.492Z,60
2023-04-28T16:55:59.898Z,59.9
2023-04-28T17:01:52.802Z,59.9
2023-04-28T17:07:15.906Z,59.9
2023-04-28T17:13:08.866Z,59.8
2023-04-28T17:19:02.521Z,59.8
2023-04-28T17:24:55.146Z,59.8
2023-04-28T17:30:47.506Z,59.7
2023-04-28T17:36:41.998Z,59.6
2023-04-28T17:42:33.855Z,59.6
2023-04-28T17:48:26.202Z,59.6
2023-04-28T17:54:19.898Z,59.5
2023-04-28T18:00:11.856Z,59.4
2023-04-28T18:06:08.015Z,59.4
2023-04-28T18:12:00.295Z,59.4
2023-04-28T18:17:55.242Z,59.3
2023-04-28T18:23:49.630Z,59.3
2023-04-28T18:29:41.585Z,59.3
2023-04-28T18:35:37.070Z,59.2
2023-04-28T18:41:29.360Z,59.1
2023-04-28T18:47:23.058Z,59.1
2023-04-28T18:53:16.355Z,59.1
2023-04-28T18:59:07.945Z,59
2023-04-28T19:05:01.732Z,59
2023-04-28T19:10:43.069Z,58.9
2023-04-28T19:16:34.565Z,58.9
2023-04-28T19:22:26.690Z,58.8
2023-04-28T19:28:19.201Z,58.8
2023-04-28T19:34:11.622Z,58.8
2023-04-28T19:40:03.977Z,58.7
2023-04-28T19:45:56.420Z,58.6
2023-04-28T19:51:49.467Z,58.6
2023-04-28T20:03:07.008Z,58.5
2023-04-28T20:09:01.880Z,58.5
2023-04-28T20:14:38.273Z,58.4
2023-04-28T20:20:30.445Z,58.4
2023-04-28T20:26:22.285Z,58.3
2023-04-28T20:32:15.222Z,58.3
2023-04-28T20:38:06.961Z,58.3
2023-04-28T20:43:58.444Z,58.2
2023-04-28T20:49:52.811Z,58.2
2023-04-28T20:55:45.653Z,58.1
2023-04-28T21:01:37.875Z,58.1
2023-04-28T21:07:31.638Z,58
2023-04-28T21:13:22.604Z,57.9
2023-04-28T21:19:14.251Z,57.9
2023-04-28T21:24:51.168Z,57.9
2023-04-28T21:30:42.022Z,57.9
2023-04-28T21:36:34.176Z,57.8
2023-04-28T21:48:02.509Z,57.7
2023-04-28T21:53:22.884Z,57.7
2023-04-28T21:59:14.475Z,57.6
2023-04-28T22:04:53.171Z,57.6
2023-04-28T22:10:44.790Z,57.6
2023-04-28T22:16:52.549Z,57.5
2023-04-28T22:22:44.364Z,57.4
2023-04-28T22:28:35.592Z,57.4
2023-04-28T22:34:11.760Z,57.4
2023-04-28T22:39:47.757Z,57.3
2023-04-28T22:45:23.685Z,57.3
2023-04-28T22:51:15.453Z,57.2
2023-04-28T22:57:09.643Z,57.2
2023-04-28T23:02:46.092Z,57.1
2023-04-28T23:08:39.854Z,57.1
2023-04-28T23:14:15.639Z,57.1
2023-04-28T23:20:09.960Z,57
2023-04-28T23:26:01.425Z,56.9
2023-04-28T23:31:37.355Z,56.9
2023-04-28T23:37:13.946Z,56.9
2023-04-28T23:42:50.343Z,56.9
2023-04-28T23:48:26.839Z,56.8
2023-04-28T23:54:17.508Z,56.8
